PWSweather.com
Personal Weather Stations
Station Observations
KVAGLENALL
West Henrico, Glen Allen, VA 23060-6503

West HenricoGlen Allen, VA 23060-6503

Lat: 37.6554, Lon: -77.5693

Elevation: 273

Station Type: Davis Vantage Pro II

www.glenallenweather.com

High Low Average
Temperature 88.8°F31.6°C 69.4°F20.8°C 79.1°F26.2°C
Dew Point 68.9°F20.5°C 64.2°F17.9°C 67.1°F19.5°C
Winds 5.0 mph 8.0 kmh Calm Calm 2.0 mph SW3.2 kmh SW
Wind Gusts 8.1 mph13.0 kmh -- 3.0 mph4.8 kmh
Humidity 90% 45% 69%
Pressure 29.86 in1011.2 mb 29.74 in1007.1 mb -
Precipitation 0.00 in0.0 mm - -
Hour Temp Dew Point Humidity Winds Wind Gusts Pressure Precip Precip Rate Daily Precip Total
12:01 AM 74.4°F23.6°C 68.9°F20.5°C 83% Calm Calm -- 29.79 in1008.8 mb 0.00 in0.0 mm 0.00 in0.0 mm 0.00 in0.0 mm
01:01 AM 73.1°F22.8°C 68.6°F20.3°C 86% Calm Calm -- 29.78 in1008.5 mb 0.00 in0.0 mm 0.00 in0.0 mm 0.00 in0.0 mm
02:00 AM 72.0°F22.2°C 66.2°F19.0°C 82% 1.0 mph WSW1.6 kmh WSW 1.0 mph1.6 kmh 29.77 in1008.1 mb 0.00 in0.0 mm 0.00 in0.0 mm 0.00 in0.0 mm
03:00 AM 70.2°F21.2°C 65.8°F18.8°C 86% 2.0 mph SW3.2 kmh SW 4.0 mph6.4 kmh 29.78 in1008.5 mb 0.00 in0.0 mm 0.00 in0.0 mm 0.00 in0.0 mm
04:00 AM 69.4°F20.8°C 66.0°F18.9°C 89% Calm Calm -- 29.80 in1009.1 mb 0.00 in0.0 mm 0.00 in0.0 mm 0.00 in0.0 mm
05:01 AM 70.3°F21.3°C 67.2°F19.6°C 90% Calm Calm -- 29.81 in1009.5 mb 0.00 in0.0 mm 0.00 in0.0 mm 0.00 in0.0 mm
06:00 AM 72.2°F22.3°C 68.4°F20.2°C 88% Calm Calm -- 29.84 in1010.5 mb 0.00 in0.0 mm 0.00 in0.0 mm 0.00 in0.0 mm
07:00 AM 72.6°F22.6°C 68.5°F20.3°C 87% Calm Calm -- 29.84 in1010.5 mb 0.00 in0.0 mm 0.00 in0.0 mm 0.00 in0.0 mm
08:00 AM 75.4°F24.1°C 68.4°F20.2°C 79% Calm Calm -- 29.85 in1010.8 mb 0.00 in0.0 mm 0.00 in0.0 mm 0.00 in0.0 mm
09:00 AM 79.9°F26.6°C 67.5°F19.7°C 66% 2.0 mph NW3.2 kmh NW 3.0 mph4.8 kmh 29.86 in1011.2 mb 0.00 in0.0 mm 0.00 in0.0 mm 0.00 in0.0 mm
10:00 AM 83.3°F28.5°C 67.0°F19.4°C 58% 2.0 mph NNW3.2 kmh NNW 3.0 mph4.8 kmh 29.85 in1010.8 mb 0.00 in0.0 mm 0.00 in0.0 mm 0.00 in0.0 mm
11:00 AM 84.6°F29.2°C 67.7°F19.8°C 57% 4.0 mph S6.4 kmh S 7.1 mph11.4 kmh 29.85 in1010.8 mb 0.00 in0.0 mm 0.00 in0.0 mm 0.00 in0.0 mm
12:00 PM 86.3°F30.2°C 66.1°F18.9°C 51% 5.0 mph SSW8.0 kmh SSW 5.1 mph8.2 kmh 29.83 in1010.2 mb 0.00 in0.0 mm 0.00 in0.0 mm 0.00 in0.0 mm
01:00 PM 86.8°F30.4°C 64.2°F17.9°C 47% 3.0 mph S4.8 kmh S 6.1 mph9.8 kmh 29.81 in1009.5 mb 0.00 in0.0 mm 0.00 in0.0 mm 0.00 in0.0 mm
02:00 PM 86.9°F30.5°C 67.2°F19.6°C 52% 3.0 mph S4.8 kmh S 5.1 mph8.2 kmh 29.79 in1008.8 mb 0.00 in0.0 mm 0.00 in0.0 mm 0.00 in0.0 mm
03:00 PM 87.9°F31.1°C 66.4°F19.1°C 49% 2.0 mph NW3.2 kmh NW 4.0 mph6.4 kmh 29.77 in1008.1 mb 0.00 in0.0 mm 0.00 in0.0 mm 0.00 in0.0 mm
04:00 PM 88.8°F31.6°C 64.8°F18.2°C 45% 4.0 mph N6.4 kmh N 8.1 mph13.0 kmh 29.74 in1007.1 mb 0.00 in0.0 mm 0.00 in0.0 mm 0.00 in0.0 mm
05:00 PM 86.0°F30.0°C 67.5°F19.7°C 54% 1.0 mph E1.6 kmh E 4.0 mph6.4 kmh 29.74 in1007.1 mb 0.00 in0.0 mm 0.00 in0.0 mm 0.00 in0.0 mm
06:00 PM 83.2°F28.4°C 68.4°F20.2°C 61% 1.0 mph NE1.6 kmh NE 5.1 mph8.2 kmh 29.75 in1007.5 mb 0.00 in0.0 mm 0.00 in0.0 mm 0.00 in0.0 mm
07:00 PM 77.4°F25.2°C 71.1°F21.7°C 81% 7.0 mph ESE11.3 kmh ESE 7.1 mph11.4 kmh 29.75 in1007.5 mb 0.03 in0.8 mm 0.00 in0.0 mm 0.03 in0.8 mm
08:00 PM 66.5°F19.2°C 63.2°F17.3°C 89% 6.0 mph WSW9.7 kmh WSW 8.1 mph13.0 kmh 29.81 in1009.5 mb 0.13 in3.3 mm 0.00 in0.0 mm 0.13 in3.3 mm
09:00 PM 65.1°F18.4°C 63.4°F17.4°C 94% 9.0 mph NE14.5 kmh NE 10.1 mph16.3 kmh 29.86 in1011.2 mb 1.11 in28.2 mm 0.00 in0.0 mm 1.11 in28.2 mm
10:00 PM 64.8°F18.2°C 61.8°F16.6°C 90% 5.0 mph NE8.0 kmh NE 14.1 mph22.7 kmh 29.82 in1009.8 mb 0.54 in13.7 mm 0.00 in0.0 mm 1.11 in28.2 mm
11:00 PM 65.3°F18.5°C 61.4°F16.3°C 87% 7.0 mph E11.3 kmh E 8.1 mph13.0 kmh 29.81 in1009.5 mb 0.03 in0.8 mm 0.00 in0.0 mm 1.11 in28.2 mm